createdAt,value
2018-06-16T00:00:32.513Z,14.50
2018-06-16T00:03:01.902Z,14.47
2018-06-16T00:05:31.389Z,14.49
2018-06-16T00:08:00.861Z,14.50
2018-06-16T00:10:30.439Z,14.44
2018-06-16T00:12:59.983Z,14.39
2018-06-16T00:15:29.448Z,14.39
2018-06-16T00:17:58.738Z,14.30
2018-06-16T00:20:28.241Z,14.28
2018-06-16T00:22:57.772Z,14.25
2018-06-16T00:25:27.267Z,14.19
2018-06-16T00:27:56.924Z,14.19
2018-06-16T00:30:26.169Z,14.18
2018-06-16T00:32:55.443Z,14.17
2018-06-16T00:35:24.726Z,14.09
2018-06-16T00:37:54.045Z,14.12
2018-06-16T00:40:23.489Z,14.09
2018-06-16T00:42:52.932Z,14.06
2018-06-16T00:45:22.442Z,14.14
2018-06-16T00:47:51.812Z,14.14
2018-06-16T00:50:21.255Z,14.12
2018-06-16T00:52:50.658Z,14.20
2018-06-16T00:55:19.980Z,14.22
2018-06-16T00:57:50.472Z,14.21
2018-06-16T01:00:20.683Z,14.23
2018-06-16T01:02:50.157Z,14.26
2018-06-16T01:05:19.492Z,14.26
2018-06-16T01:07:48.859Z,14.27
2018-06-16T01:10:18.179Z,14.24
2018-06-16T01:12:47.709Z,14.22
2018-06-16T01:15:17.048Z,14.14
2018-06-16T01:17:46.310Z,14.14
2018-06-16T01:23:12.534Z,14.18
2018-06-16T01:25:42.226Z,14.16
2018-06-16T01:28:11.837Z,14.01
2018-06-16T01:30:41.236Z,13.90
2018-06-16T01:33:10.796Z,13.83
2018-06-16T01:35:40.019Z,13.90
2018-06-16T01:38:09.335Z,13.95
2018-06-16T01:40:39.008Z,13.81
2018-06-16T01:43:08.225Z,13.71
2018-06-16T01:45:37.712Z,13.76
2018-06-16T01:48:07.107Z,13.77
2018-06-16T01:50:36.250Z,13.71
2018-06-16T01:53:05.749Z,13.67
2018-06-16T01:55:35.357Z,13.60
2018-06-16T01:58:04.641Z,13.45
2018-06-16T02:00:33.996Z,13.39
2018-06-16T02:03:03.681Z,13.45
2018-06-16T02:05:33.008Z,13.52
2018-06-16T02:08:02.263Z,13.58
2018-06-16T02:10:31.506Z,13.58
2018-06-16T02:13:00.791Z,13.56
2018-06-16T02:15:30.131Z,13.47
2018-06-16T02:17:59.410Z,13.46
2018-06-16T02:20:28.655Z,13.49
2018-06-16T02:22:57.970Z,13.33
2018-06-16T02:25:27.336Z,13.24
2018-06-16T02:27:56.366Z,13.19
2018-06-16T02:30:25.802Z,13.26
2018-06-16T02:32:55.216Z,13.22
2018-06-16T02:35:24.563Z,13.15
2018-06-16T02:37:53.947Z,13.19
2018-06-16T02:40:23.229Z,13.21
2018-06-16T02:42:52.455Z,13.21
2018-06-16T02:45:21.743Z,13.25
2018-06-16T02:47:50.744Z,13.16
2018-06-16T02:50:20.123Z,13.14
2018-06-16T02:52:49.118Z,13.18
2018-06-16T02:55:18.415Z,13.25
2018-06-16T02:57:47.695Z,13.25
2018-06-16T03:00:16.939Z,13.25
2018-06-16T03:02:46.315Z,13.23
2018-06-16T03:05:15.543Z,13.24
2018-06-16T03:07:44.712Z,13.25
2018-06-16T03:10:13.867Z,13.16
2018-06-16T03:12:43.037Z,13.07
2018-06-16T03:15:12.203Z,13.05
2018-06-16T03:17:41.348Z,13.03
2018-06-16T03:20:10.500Z,12.96
2018-06-16T03:22:39.667Z,13.01
2018-06-16T03:25:08.854Z,12.94
2018-06-16T03:27:38.011Z,12.97
2018-06-16T03:30:07.361Z,12.97
2018-06-16T03:32:36.525Z,12.98
2018-06-16T03:35:05.691Z,12.98
2018-06-16T03:37:34.867Z,13.04
2018-06-16T03:40:03.800Z,13.15
2018-06-16T03:42:32.956Z,13.21
2018-06-16T03:45:01.896Z,13.19
2018-06-16T03:47:31.046Z,13.20
2018-06-16T03:50:00.216Z,13.23
2018-06-16T03:52:29.653Z,13.24
2018-06-16T03:54:59.260Z,13.27
2018-06-16T03:57:28.431Z,13.10
2018-06-16T03:59:57.595Z,13.07
2018-06-16T04:02:26.743Z,13.10
2018-06-16T04:04:55.896Z,13.19
2018-06-16T04:07:25.020Z,13.31
2018-06-16T04:09:54.884Z,13.36
2018-06-16T04:12:24.040Z,13.47
2018-06-16T04:14:53.177Z,13.46
2018-06-16T04:17:22.304Z,13.57
2018-06-16T04:19:52.473Z,13.57
2018-06-16T04:22:21.888Z,13.61
2018-06-16T04:24:51.024Z,13.60
2018-06-16T04:27:20.143Z,13.66
2018-06-16T04:29:49.275Z,13.69
2018-06-16T04:32:18.404Z,13.82
2018-06-16T04:34:47.614Z,13.90
2018-06-16T04:37:16.653Z,14.00
2018-06-16T04:39:45.785Z,13.96
2018-06-16T04:42:14.903Z,14.21
2018-06-16T04:44:44.032Z,14.35
2018-06-16T04:47:12.954Z,14.54
2018-06-16T04:49:42.077Z,14.72
2018-06-16T04:52:11.207Z,14.97
2018-06-16T04:54:40.332Z,15.18
2018-06-16T04:57:09.480Z,15.25
2018-06-16T04:59:38.600Z,15.34
2018-06-16T05:02:07.808Z,15.52
2018-06-16T05:04:36.962Z,15.52
2018-06-16T05:07:06.140Z,15.66
2018-06-16T05:09:35.294Z,15.81
2018-06-16T05:12:04.461Z,15.96
2018-06-16T05:14:33.617Z,16.10
2018-06-16T05:17:02.804Z,16.15
2018-06-16T05:19:31.932Z,16.16
2018-06-16T05:22:01.094Z,16.31
2018-06-16T05:24:30.251Z,16.29
2018-06-16T05:26:59.406Z,16.52
2018-06-16T05:29:28.563Z,16.68
2018-06-16T05:31:57.732Z,16.69
2018-06-16T05:34:26.889Z,16.64
2018-06-16T05:36:56.044Z,16.72
2018-06-16T05:39:25.200Z,16.75
2018-06-16T05:41:54.364Z,16.75
2018-06-16T05:44:23.512Z,16.95
2018-06-16T05:46:52.669Z,16.84
2018-06-16T05:49:21.819Z,16.89
2018-06-16T05:51:51.000Z,16.76
2018-06-16T05:54:20.161Z,16.86
2018-06-16T05:56:49.531Z,16.78
2018-06-16T05:59:18.490Z,16.62
2018-06-16T06:01:47.665Z,16.75
2018-06-16T06:04:16.855Z,16.68
2018-06-16T06:06:45.989Z,16.82
2018-06-16T06:09:15.105Z,16.74
2018-06-16T06:11:44.021Z,16.78
2018-06-16T06:14:13.159Z,17.06
2018-06-16T06:16:42.283Z,17.06
2018-06-16T06:19:11.436Z,17.19
2018-06-16T06:21:40.560Z,17.36
2018-06-16T06:24:09.696Z,17.44
2018-06-16T06:26:38.824Z,17.43
2018-06-16T06:29:07.959Z,17.63
2018-06-16T06:31:37.097Z,17.62
2018-06-16T06:34:06.226Z,17.72
2018-06-16T06:36:35.356Z,17.81
2018-06-16T06:39:05.992Z,17.66
2018-06-16T06:41:35.112Z,18.04
2018-06-16T06:44:04.252Z,18.14
2018-06-16T06:46:33.388Z,18.32
2018-06-16T06:49:02.296Z,18.44
2018-06-16T06:51:31.427Z,18.17
2018-06-16T06:54:00.583Z,18.26
2018-06-16T06:56:29.740Z,18.45
2018-06-16T06:58:58.896Z,18.63
2018-06-16T07:01:28.052Z,18.81
2018-06-16T07:03:56.984Z,18.98
2018-06-16T07:06:26.096Z,19.00
2018-06-16T07:08:55.248Z,19.07
2018-06-16T07:11:24.374Z,18.96
2018-06-16T07:13:53.499Z,19.13
2018-06-16T07:16:22.633Z,19.15
2018-06-16T07:18:51.761Z,19.42
2018-06-16T07:21:20.891Z,19.25
2018-06-16T07:23:50.017Z,19.14
2018-06-16T07:26:19.162Z,19.31
2018-06-16T07:28:48.287Z,19.35
2018-06-16T07:31:17.448Z,19.61
2018-06-16T07:33:46.608Z,19.55
2018-06-16T07:36:15.810Z,19.77
2018-06-16T07:38:44.868Z,19.96
2018-06-16T07:41:14.004Z,20.00
2018-06-16T07:43:43.149Z,20.11
2018-06-16T07:46:12.287Z,19.84
2018-06-16T07:48:41.413Z,20.17
2018-06-16T07:51:10.544Z,20.43
2018-06-16T07:53:39.667Z,20.18
2018-06-16T07:56:08.574Z,20.34
2018-06-16T07:58:37.710Z,20.26
2018-06-16T08:01:06.935Z,20.08
2018-06-16T08:03:36.102Z,20.44
2018-06-16T08:06:05.245Z,20.78
2018-06-16T08:08:34.146Z,21.11
2018-06-16T08:11:03.275Z,20.76
2018-06-16T08:13:32.408Z,21.03
2018-06-16T08:16:01.527Z,20.93
2018-06-16T08:18:30.440Z,21.21
2018-06-16T08:20:59.573Z,21.41
2018-06-16T08:23:28.707Z,21.43
2018-06-16T08:25:57.862Z,21.67
2018-06-16T08:28:26.996Z,21.93
2018-06-16T08:30:56.133Z,21.87
2018-06-16T08:33:25.264Z,21.92
2018-06-16T08:35:54.392Z,21.93
2018-06-16T08:38:23.527Z,22.30
2018-06-16T08:40:52.728Z,22.38
2018-06-16T08:43:21.879Z,22.06
2018-06-16T08:45:50.998Z,22.17
2018-06-16T08:48:20.130Z,22.22
2018-06-16T08:50:49.268Z,22.55
2018-06-16T08:53:18.194Z,22.72
2018-06-16T08:55:47.354Z,22.65
2018-06-16T08:58:16.286Z,22.79
2018-06-16T09:00:45.447Z,22.52
2018-06-16T09:03:14.615Z,22.86
2018-06-16T09:05:43.778Z,23.24
2018-06-16T09:08:12.924Z,23.54
2018-06-16T09:10:42.085Z,23.78
2018-06-16T09:13:11.256Z,24.54
2018-06-16T09:15:40.425Z,24.46
2018-06-16T09:18:09.591Z,24.01
2018-06-16T09:20:38.822Z,23.56
2018-06-16T09:23:08.667Z,24.15
2018-06-16T09:25:38.217Z,24.59
2018-06-16T09:28:07.550Z,23.71
2018-06-16T09:30:36.974Z,23.90
2018-06-16T09:33:06.373Z,23.81
2018-06-16T09:35:35.723Z,23.51
2018-06-16T09:38:05.409Z,23.76
2018-06-16T09:40:34.704Z,24.31
2018-06-16T09:43:04.063Z,24.58
2018-06-16T09:45:34.210Z,25.33
2018-06-16T09:48:03.976Z,24.63
2018-06-16T09:50:33.632Z,24.65
2018-06-16T09:53:04.264Z,24.76
2018-06-16T09:55:33.685Z,24.33
2018-06-16T09:58:03.039Z,23.13
2018-06-16T10:00:37.833Z,22.63
2018-06-16T10:03:07.274Z,22.85
2018-06-16T10:05:36.761Z,22.81
2018-06-16T10:08:06.064Z,22.75
2018-06-16T10:10:36.053Z,22.96
2018-06-16T10:13:06.133Z,23.26
2018-06-16T10:15:36.020Z,23.58
2018-06-16T10:18:05.977Z,23.73
2018-06-16T10:20:35.537Z,23.07
2018-06-16T10:23:05.769Z,23.73
2018-06-16T10:25:35.682Z,23.86
2018-06-16T10:28:05.210Z,23.78
2018-06-16T10:30:38.174Z,24.06
2018-06-16T10:33:10.266Z,23.96
2018-06-16T10:35:44.791Z,24.16
2018-06-16T10:38:14.628Z,24.61
2018-06-16T10:40:44.195Z,24.79
2018-06-16T10:43:13.655Z,24.51
2018-06-16T10:45:42.822Z,24.72
2018-06-16T10:48:12.074Z,24.24
2018-06-16T10:50:41.505Z,25.09
2018-06-16T10:53:10.841Z,25.07
2018-06-16T10:55:40.142Z,25.13
2018-06-16T10:58:09.449Z,25.14
2018-06-16T11:00:38.759Z,25.97
2018-06-16T11:03:08.114Z,25.72
2018-06-16T11:05:37.450Z,25.82
2018-06-16T11:08:06.799Z,26.22
2018-06-16T11:10:36.150Z,25.48
2018-06-16T11:13:05.486Z,25.14
2018-06-16T11:15:34.815Z,25.11
2018-06-16T11:18:04.159Z,25.16
2018-06-16T11:20:33.576Z,25.16
2018-06-16T11:23:02.610Z,25.81
2018-06-16T11:25:32.053Z,25.31
2018-06-16T11:28:01.344Z,26.15
2018-06-16T11:30:30.751Z,26.56
2018-06-16T11:33:00.016Z,28.14
2018-06-16T11:35:29.400Z,27.64
2018-06-16T11:37:58.748Z,27.11
2018-06-16T11:40:28.102Z,27.16
2018-06-16T11:42:57.386Z,25.15
2018-06-16T11:45:26.676Z,26.06
2018-06-16T11:47:55.746Z,25.15
2018-06-16T11:50:24.985Z,25.55
2018-06-16T11:52:54.260Z,26.26
2018-06-16T11:55:23.596Z,27.05
2018-06-16T11:57:52.989Z,25.97
2018-06-16T12:00:22.338Z,25.99
2018-06-16T12:02:51.672Z,25.44
2018-06-16T12:05:20.757Z,26.65
2018-06-16T12:07:50.065Z,27.68
2018-06-16T12:10:19.400Z,27.00
2018-06-16T12:12:48.693Z,25.93
2018-06-16T12:15:18.010Z,25.47
2018-06-16T12:17:47.294Z,26.68
2018-06-16T12:20:16.617Z,26.76
2018-06-16T12:22:46.038Z,27.80
2018-06-16T12:25:15.360Z,27.29
2018-06-16T12:27:44.655Z,26.53
2018-06-16T12:30:13.915Z,27.83
2018-06-16T12:32:43.206Z,25.96
2018-06-16T12:35:12.513Z,25.50
2018-06-16T12:37:41.866Z,25.13
2018-06-16T12:40:11.174Z,25.77
2018-06-16T12:42:40.458Z,26.13
2018-06-16T12:45:09.692Z,25.25
2018-06-16T12:47:38.922Z,25.72
2018-06-16T12:50:08.485Z,26.53
2018-06-16T12:52:37.780Z,27.44
2018-06-16T12:55:07.093Z,26.17
2018-06-16T12:57:36.732Z,26.18
2018-06-16T13:00:06.165Z,27.77
2018-06-16T13:02:35.490Z,26.35
2018-06-16T13:05:04.551Z,26.63
2018-06-16T13:07:33.847Z,27.57
2018-06-16T13:10:03.181Z,26.73
2018-06-16T13:12:32.516Z,27.13
2018-06-16T13:15:01.821Z,27.56
2018-06-16T13:17:31.090Z,26.43
2018-06-16T13:20:00.389Z,26.30
2018-06-16T13:22:29.705Z,25.78
2018-06-16T13:24:59.001Z,26.36
2018-06-16T13:27:28.286Z,27.17
2018-06-16T13:29:57.610Z,28.35
2018-06-16T13:32:26.841Z,28.04
2018-06-16T13:34:55.968Z,28.32
2018-06-16T13:37:25.109Z,27.44
2018-06-16T13:39:54.662Z,27.29
2018-06-16T13:42:23.809Z,27.03
2018-06-16T13:44:52.955Z,26.37
2018-06-16T13:47:22.121Z,26.09
2018-06-16T13:49:51.264Z,26.85
2018-06-16T13:52:20.414Z,26.29
2018-06-16T13:54:49.547Z,25.59
2018-06-16T13:57:18.705Z,25.65
2018-06-16T13:59:47.841Z,26.20
2018-06-16T14:02:17.033Z,25.42
2018-06-16T14:04:46.215Z,25.57
2018-06-16T14:07:15.389Z,25.41
2018-06-16T14:09:44.555Z,26.20
2018-06-16T14:12:13.763Z,27.06
2018-06-16T14:14:42.942Z,27.70
2018-06-16T14:17:11.872Z,27.57
2018-06-16T14:19:41.036Z,26.56
2018-06-16T14:22:10.233Z,26.58
2018-06-16T14:24:39.418Z,25.67
2018-06-16T14:27:08.593Z,25.31
2018-06-16T14:29:37.763Z,25.79
2018-06-16T14:32:06.934Z,26.10
2018-06-16T14:34:36.111Z,27.11
2018-06-16T14:37:05.301Z,26.88
2018-06-16T14:39:34.246Z,26.46
2018-06-16T14:42:03.425Z,25.83
2018-06-16T14:44:32.596Z,26.23
2018-06-16T14:47:01.760Z,26.15
2018-06-16T14:49:30.937Z,25.37
2018-06-16T14:52:00.131Z,25.82
2018-06-16T14:54:29.337Z,25.52
2018-06-16T14:56:58.520Z,25.42
2018-06-16T14:59:27.705Z,25.32
2018-06-16T15:01:56.881Z,25.24
2018-06-16T15:04:26.074Z,24.99
2018-06-16T15:06:55.177Z,25.33
2018-06-16T15:09:24.334Z,25.51
2018-06-16T15:11:53.495Z,25.39
2018-06-16T15:14:22.676Z,25.33
2018-06-16T15:16:51.824Z,25.22
2018-06-16T15:19:20.984Z,25.42
2018-06-16T15:21:50.132Z,25.44
2018-06-16T15:24:19.285Z,26.33
2018-06-16T15:26:48.435Z,25.77
2018-06-16T15:29:17.642Z,26.42
2018-06-16T15:31:46.740Z,26.44
2018-06-16T15:34:15.879Z,26.21
2018-06-16T15:36:45.043Z,26.36
2018-06-16T15:39:14.194Z,26.25
2018-06-16T15:41:43.342Z,25.63
2018-06-16T15:44:12.484Z,25.37
2018-06-16T15:46:41.667Z,26.04
2018-06-16T15:49:10.791Z,26.24
2018-06-16T15:51:39.987Z,25.86
2018-06-16T15:54:09.176Z,25.99
2018-06-16T15:56:38.333Z,26.51
2018-06-16T15:59:07.464Z,27.08
2018-06-16T16:01:36.616Z,26.58
2018-06-16T16:04:05.878Z,25.24
2018-06-16T16:06:35.017Z,26.38
2018-06-16T16:09:05.725Z,27.23
2018-06-16T16:11:34.895Z,27.54
2018-06-16T16:14:04.056Z,27.35
2018-06-16T16:16:33.219Z,27.65
2018-06-16T16:19:02.364Z,27.48
2018-06-16T16:21:31.516Z,25.12
2018-06-16T16:24:00.668Z,26.02
2018-06-16T16:26:29.817Z,25.54
2018-06-16T16:28:59.217Z,25.89
2018-06-16T16:31:28.417Z,25.71
2018-06-16T16:33:57.560Z,26.60
2018-06-16T16:36:26.709Z,26.61
2018-06-16T16:38:55.858Z,27.53
2018-06-16T16:41:25.004Z,29.09
2018-06-16T16:43:54.554Z,27.19
2018-06-16T16:46:23.716Z,27.99
2018-06-16T16:48:52.840Z,25.61
2018-06-16T16:51:21.994Z,26.33
2018-06-16T16:53:51.173Z,26.55
2018-06-16T16:56:20.344Z,26.34
2018-06-16T16:58:49.527Z,27.04
2018-06-16T17:01:18.703Z,26.02
2018-06-16T17:03:47.878Z,25.04
2018-06-16T17:06:17.041Z,25.20
2018-06-16T17:08:46.007Z,24.42
2018-06-16T17:11:15.189Z,24.75
2018-06-16T17:13:44.380Z,24.44
2018-06-16T17:16:13.666Z,24.45
2018-06-16T17:18:42.908Z,24.65
2018-06-16T17:21:12.173Z,24.57
2018-06-16T17:23:41.431Z,24.41
2018-06-16T17:26:10.682Z,24.76
2018-06-16T17:28:39.860Z,26.05
2018-06-16T17:31:09.063Z,24.85
2018-06-16T17:33:38.227Z,24.57
2018-06-16T17:36:07.202Z,24.07
2018-06-16T17:38:36.328Z,24.16
2018-06-16T17:41:05.505Z,24.14
2018-06-16T17:43:34.432Z,25.86
2018-06-16T17:46:03.614Z,24.99
2018-06-16T17:48:32.795Z,24.90
2018-06-16T17:51:01.739Z,24.04
2018-06-16T17:53:30.942Z,24.05
2018-06-16T17:56:00.096Z,24.05
2018-06-16T17:58:29.264Z,23.86
2018-06-16T18:00:58.428Z,23.53
2018-06-16T18:03:27.619Z,23.36
2018-06-16T18:05:56.794Z,23.23
2018-06-16T18:08:25.967Z,23.08
2018-06-16T18:10:54.910Z,22.87
2018-06-16T18:13:24.122Z,22.92
2018-06-16T18:15:53.327Z,22.88
2018-06-16T18:18:22.509Z,22.72
2018-06-16T18:20:51.676Z,22.67
2018-06-16T18:23:20.860Z,22.55
2018-06-16T18:25:50.027Z,22.47
2018-06-16T18:31:16.533Z,22.20
2018-06-16T18:33:45.731Z,22.09
2018-06-16T18:36:14.869Z,22.05
2018-06-16T18:38:44.042Z,21.91
2018-06-16T18:41:13.225Z,21.83
2018-06-16T18:43:42.410Z,21.74
2018-06-16T18:46:11.575Z,21.67
2018-06-16T18:48:40.748Z,21.65
2018-06-16T18:51:09.954Z,21.67
2018-06-16T18:53:39.104Z,21.44
2018-06-16T18:56:08.273Z,21.43
2018-06-16T18:58:37.468Z,21.51
2018-06-16T19:01:06.620Z,21.33
2018-06-16T19:03:35.851Z,21.23
2018-06-16T19:06:05.050Z,21.21
2018-06-16T19:08:33.986Z,21.27
2018-06-16T19:11:03.188Z,21.23
2018-06-16T19:13:32.345Z,21.26
2018-06-16T19:16:01.286Z,21.02
2018-06-16T19:18:30.437Z,20.82
2018-06-16T19:20:59.745Z,20.70
2018-06-16T19:23:29.018Z,20.67
2018-06-16T19:25:58.185Z,20.63
2018-06-16T19:28:27.406Z,20.58
2018-06-16T19:30:56.696Z,20.49
2018-06-16T19:33:25.985Z,20.41
2018-06-16T19:35:55.240Z,20.34
2018-06-16T19:38:24.679Z,20.24
2018-06-16T19:40:54.065Z,20.15
2018-06-16T19:43:23.318Z,20.34
2018-06-16T19:45:52.561Z,20.15
2018-06-16T19:48:21.941Z,20.16
2018-06-16T19:50:51.106Z,20.29
2018-06-16T19:53:20.577Z,20.25
2018-06-16T19:55:49.949Z,20.20
2018-06-16T19:58:19.174Z,20.00
2018-06-16T20:00:48.481Z,19.98
2018-06-16T20:03:17.691Z,20.01
2018-06-16T20:05:46.895Z,19.89
2018-06-16T20:08:16.059Z,19.81
2018-06-16T20:10:45.226Z,19.77
2018-06-16T20:13:14.462Z,19.65
2018-06-16T20:15:43.616Z,19.66
2018-06-16T20:18:12.580Z,19.57
2018-06-16T20:20:41.731Z,19.40
2018-06-16T20:23:10.924Z,19.34
2018-06-16T20:25:40.134Z,19.18
2018-06-16T20:28:09.300Z,19.07
2018-06-16T20:30:38.625Z,19.01
2018-06-16T20:33:07.790Z,18.98
2018-06-16T20:35:36.784Z,18.92
2018-06-16T20:38:05.996Z,18.84
2018-06-16T20:40:35.246Z,18.73
2018-06-16T20:43:04.451Z,18.72
2018-06-16T20:45:33.609Z,18.74
2018-06-16T20:48:02.809Z,18.77
2018-06-16T20:50:31.961Z,18.56
2018-06-16T20:53:01.128Z,18.48
2018-06-16T20:55:30.568Z,18.51
2018-06-16T20:57:59.516Z,18.52
2018-06-16T21:00:28.718Z,18.80
2018-06-16T21:02:57.892Z,18.77
2018-06-16T21:05:27.195Z,18.79
2018-06-16T21:07:56.366Z,19.04
2018-06-16T21:10:25.525Z,19.05
2018-06-16T21:12:54.678Z,19.29
2018-06-16T21:15:23.857Z,19.25
2018-06-16T21:17:52.767Z,19.18
2018-06-16T21:20:21.945Z,19.14
2018-06-16T21:22:51.113Z,19.23
2018-06-16T21:25:20.345Z,19.27
2018-06-16T21:27:49.506Z,19.36
2018-06-16T21:30:18.656Z,19.25
2018-06-16T21:32:47.805Z,19.27
2018-06-16T21:35:16.977Z,19.41
2018-06-16T21:37:46.179Z,19.34
2018-06-16T21:40:15.335Z,19.32
2018-06-16T21:42:44.516Z,19.35
2018-06-16T21:45:13.684Z,19.29
2018-06-16T21:47:42.841Z,19.25
2018-06-16T21:50:12.005Z,19.25
2018-06-16T21:52:41.174Z,19.22
2018-06-16T21:55:10.317Z,19.25
2018-06-16T21:57:39.490Z,19.26
2018-06-16T22:00:12.471Z,19.05
2018-06-16T22:02:41.813Z,19.02
2018-06-16T22:05:10.943Z,18.87
2018-06-16T22:07:40.131Z,18.89
2018-06-16T22:10:09.976Z,18.83
2018-06-16T22:12:39.312Z,18.76
2018-06-16T22:15:08.465Z,18.75
2018-06-16T22:17:37.615Z,18.81
2018-06-16T22:20:06.796Z,19.26
2018-06-16T22:22:35.966Z,19.61
2018-06-16T22:25:05.662Z,19.22
2018-06-16T22:27:34.998Z,19.15
2018-06-16T22:30:04.349Z,19.02
2018-06-16T22:32:33.545Z,18.67
2018-06-16T22:35:02.701Z,18.87
2018-06-16T22:37:31.872Z,18.40
2018-06-16T22:40:00.796Z,18.11
2018-06-16T22:42:29.966Z,18.10
2018-06-16T22:44:59.130Z,18.30
2018-06-16T22:47:28.297Z,18.53
2018-06-16T22:49:57.462Z,18.29
2018-06-16T22:52:26.401Z,18.11
2018-06-16T22:54:55.594Z,17.84
2018-06-16T22:57:24.727Z,17.68
2018-06-16T22:59:53.888Z,17.61
2018-06-16T23:02:23.121Z,17.42
2018-06-16T23:04:52.280Z,17.26
2018-06-16T23:07:21.471Z,17.04
2018-06-16T23:09:50.637Z,16.97
2018-06-16T23:12:19.793Z,17.04
2018-06-16T23:14:48.944Z,17.07
2018-06-16T23:17:18.108Z,17.03
2018-06-16T23:19:47.280Z,16.99
2018-06-16T23:22:16.432Z,16.95
2018-06-16T23:24:45.599Z,16.88
2018-06-16T23:27:14.513Z,16.80
2018-06-16T23:29:43.686Z,16.81
2018-06-16T23:32:12.617Z,16.87
2018-06-16T23:34:41.782Z,16.83
2018-06-16T23:37:10.952Z,16.81
2018-06-16T23:39:40.108Z,16.78
2018-06-16T23:42:09.267Z,16.85
2018-06-16T23:44:38.426Z,17.09
2018-06-16T23:47:07.578Z,16.96
2018-06-16T23:49:36.904Z,16.78
2018-06-16T23:52:06.061Z,16.68
2018-06-16T23:54:35.222Z,16.64
2018-06-16T23:57:04.405Z,16.60
2018-06-16T23:59:33.568Z,16.51
